Impacts TAF Board INFO
FOR SITUATIONAL AWARENESS. NOT TO BE USED FOR FLIGHT PLANNING PURPOSES.
IDs:

KSEA - Seattle-Tacoma Intl, WA, US

Issued at 1737 UTC 19 Feb 2017
Updated at 2059 UTC 19 Feb 2017
Potential Impact None Slight Moderate High
Time2053Z 19/21Z 19/22Z 19/23Z 20/00Z 20/01Z 20/02Z 20/03Z 20/04Z 20/05Z 20/06Z 20/07Z 20/08Z 20/09Z
Type OBS PRVL PRVL
  [TEMP]  
PRVL
  [TEMP]  
PRVL
  [TEMP]  
PRVL
  [TEMP]  
PRVL PRVL PRVL PRVL PRVL PRVL PRVL PRVL
VIS 10 >6 >6
  [4]  
>6
  [4]  
>6
  [4]  
>6
  [4]  
>6 >6 >6 >6 >6 >6 >6 >6
CIG 49 50 50
  [25]  
50
  [25]  
50
  [25]  
50
  [25]  
50 50 50 50 50 50 50 50
Cover OVC BKN BKN
  [OVC]  
BKN
  [OVC]  
BKN
  [OVC]  
BKN
  [OVC]  
BKN BKN BKN BKN BKN BKN BKN BKN
FltCat VFR VFR VFR
  [MVFR]  
VFR
  [MVFR]  
VFR
  [MVFR]  
VFR
  [MVFR]  
VFR VFR VFR VFR VFR VFR VFR VFR
WX -- -SHRA -SHRA
  [SHRA]  
-SHRA
  [SHRA]  
-SHRA
  [SHRA]  
-SHRA
  [SHRA]  
-SHRA -SHRA -SHRA -SHRA -SHRA -SHRA -SHRA -SHRA
WDir 170 180 180
[180]
180
[180]
180
[180]
180
[180]
180 170 170 170 170 170 170 170
WSpd 18 12 12
  [12]  
12
  [12]  
12
  [12]  
12
  [12]  
12 12 12 12 12 12 12 12
WGst 23 22 22
  [22]  
22
  [22]  
22
  [22]  
22
  [22]  
22 -- -- -- -- -- -- --

Raw TAF
KSEA 191737Z 1918/2024 17010KT P6SM -SHRA SCT025 BKN050
  FM192100 18012G22KT P6SM -SHRA SCT025 BKN050
  TEMPO 1922/2002 4SM SHRA BKN025 OVC040
  FM200300 17012KT P6SM -SHRA SCT030 BKN050
  FM201000 13007KT P6SM VCSH BKN050


Raw METAR
KSEA 192053Z 17018G23KT 10SM FEW031 SCT040 OVC049 08/04 A2949 RMK AO2 RAE08 SLP992 P0000 60000 T00780044 51013 $
KSEA 191953Z 19013G22KT 10SM -RA FEW027 BKN042 OVC050 08/04 A2948 RMK AO2 RAE05B53 SLP991 P0000 T00780039 $
KSEA 191853Z 19007KT 9SM -RA BKN041 BKN049 OVC060 07/04 A2946 RMK AO2 RAB51 SLP985 P0000 T00720044 $
KSEA 191753Z 19009KT 10SM BKN055 BKN075 07/04 A2945 RMK AO2 SLP979 6//// T00720044 10072 20044 51015 $

METAR Board
Radar Display
Forecast Discussion

FOR SITUATIONAL AWARENESS. NOT TO BE USED FOR FLIGHT PLANNING PURPOSES.

Page loaded:  20:59 UTC  |   12:59 PM Pacific  |   01:59 PM Mountain  |   02:59 PM Central  |   03:59 PM Eastern

 

ADVISORIES

FORECASTS

FORECASTS

OBSERVATIONS

USER TOOLS

ABOUT US